Time;durP1;ratioP1;P1;durP2;ratioP2;P2;SDS_P1;SDS_P2;PMS_P1;PMS_P2;Temp;Humidity;BMP_temperature;BMP_pressure;BME280_temperature;BME280_humidity;BME280_pressure;Samples;Min_cycle;Max_cycle;Signal;HPM_P1;HPM_P2
2022/12/20 00:02:08;;;;;;;0.20;0.10;;;;;;;;;;5026010;28;20049;-83
2022/12/20 00:04:34;;;;;;;0.35;0.35;;;;;;;;;;5024996;28;20133;-81
2022/12/20 00:07:00;;;;;;;0.20;0.10;;;;;;;;;;5017257;28;20128;-86
2022/12/20 00:09:27;;;;;;;0.20;0.10;;;;;;;;;;5029357;28;20521;-81
2022/12/20 00:11:53;;;;;;;0.30;0.22;;;;;;;;;;5028772;28;20736;-83
2022/12/20 00:14:19;;;;;;;0.20;0.10;;;;;;;;;;5022910;28;20052;-82
2022/12/20 00:16:45;;;;;;;0.20;0.10;;;;;;;;;;5022461;28;20072;-82
2022/12/20 00:19:11;;;;;;;0.20;0.10;;;;;;;;;;5024617;28;20530;-83
2022/12/20 00:21:37;;;;;;;0.40;0.40;;;;;;;;;;5024239;28;20051;-82
2022/12/20 00:24:04;;;;;;;0.20;0.10;;;;;;;;;;5020424;28;20043;-82
2022/12/20 00:26:31;;;;;;;0.20;0.17;;;;;;;;;;5028411;28;20065;-82
2022/12/20 00:28:57;;;;;;;0.20;0.10;;;;;;;;;;5027798;28;20423;-82
2022/12/20 00:31:27;;;;;;;0.20;0.10;;;;;;;;;;5028203;28;20127;-83
2022/12/20 00:33:55;;;;;;;0.20;0.10;;;;;;;;;;5024930;28;20127;-83
2022/12/20 00:36:22;;;;;;;0.30;0.20;;;;;;;;;;5007902;28;20041;-84
2022/12/20 00:38:49;;;;;;;0.63;0.30;;;;;;;;;;5026158;28;20044;-82
2022/12/20 00:41:17;;;;;;;0.20;0.10;;;;;;;;;;5019656;28;20069;-83
2022/12/20 00:43:43;;;;;;;0.30;0.25;;;;;;;;;;5030760;28;20042;-83
2022/12/20 00:46:10;;;;;;;0.20;0.10;;;;;;;;;;5025602;28;20044;-84
2022/12/20 00:48:36;;;;;;;0.20;0.10;;;;;;;;;;5013012;28;20280;-83
2022/12/20 00:51:07;;;;;;;0.20;0.17;;;;;;;;;;5008807;28;20262;-84
2022/12/20 00:53:33;;;;;;;0.38;0.38;;;;;;;;;;5024432;28;20079;-83
2022/12/20 00:55:59;;;;;;;0.20;0.10;;;;;;;;;;5008252;28;20034;-82
2022/12/20 00:58:26;;;;;;;1.52;1.42;;;;;;;;;;5028296;28;20073;-83
2022/12/20 01:00:52;;;;;;;0.20;0.10;;;;;;;;;;5028863;28;20042;-83
2022/12/20 01:03:18;;;;;;;0.20;0.10;;;;;;;;;;5030354;28;20045;-83
2022/12/20 01:05:54;;;;;;;0.20;0.10;;;;;;;;;;5024856;28;20042;-82
2022/12/20 01:08:21;;;;;;;0.20;0.10;;;;;;;;;;5024096;28;20044;-83
2022/12/20 01:10:57;;;;;;;0.28;0.28;;;;;;;;;;5032384;28;20088;-83
2022/12/20 01:13:23;;;;;;;0.43;0.25;;;;;;;;;;5027325;28;20554;-82
2022/12/20 01:15:49;;;;;;;0.38;0.38;;;;;;;;;;5027364;28;20124;-83
2022/12/20 01:18:15;;;;;;;0.40;0.40;;;;;;;;;;5031535;28;20080;-82
2022/12/20 01:20:41;;;;;;;0.28;0.20;;;;;;;;;;5018608;28;20510;-82
2022/12/20 01:23:07;;;;;;;0.20;0.10;;;;;;;;;;5036139;28;20120;-82
2022/12/20 01:25:33;;;;;;;0.25;0.22;;;;;;;;;;5028187;28;20132;-82
2022/12/20 01:27:59;;;;;;;0.20;0.10;;;;;;;;;;5021907;28;20458;-84
2022/12/20 01:30:25;;;;;;;0.20;0.10;;;;;;;;;;5035158;28;20044;-81
2022/12/20 01:32:51;;;;;;;0.20;0.10;;;;;;;;;;5014562;28;20053;-83
2022/12/20 01:35:17;;;;;;;0.20;0.10;;;;;;;;;;5032995;28;20061;-82
2022/12/20 01:37:43;;;;;;;0.20;0.10;;;;;;;;;;5031953;28;20045;-82
2022/12/20 01:40:10;;;;;;;0.20;0.10;;;;;;;;;;5024516;28;20040;-84
2022/12/20 01:42:36;;;;;;;0.20;0.10;;;;;;;;;;5027154;28;20642;-84
2022/12/20 01:45:07;;;;;;;0.20;0.10;;;;;;;;;;5025182;28;20647;-82
2022/12/20 01:47:34;;;;;;;0.30;0.25;;;;;;;;;;5029772;28;20503;-84
2022/12/20 01:50:01;;;;;;;0.20;0.15;;;;;;;;;;5036061;28;20771;-82
2022/12/20 01:52:38;;;;;;;0.20;0.10;;;;;;;;;;5014560;28;20053;-83
2022/12/20 01:55:18;;;;;;;0.90;0.60;;;;;;;;;;5029287;28;20044;-82
2022/12/20 01:57:50;;;;;;;0.20;0.10;;;;;;;;;;5033204;28;20454;-81
2022/12/20 02:00:17;;;;;;;0.20;0.10;;;;;;;;;;5021860;28;20124;-83
2022/12/20 02:02:45;;;;;;;0.20;0.10;;;;;;;;;;5037838;28;20063;-84
2022/12/20 02:05:13;;;;;;;0.20;0.10;;;;;;;;;;5029142;28;20040;-83
2022/12/20 02:07:40;;;;;;;0.20;0.10;;;;;;;;;;5029758;28;20044;-83
2022/12/20 02:10:08;;;;;;;0.20;0.10;;;;;;;;;;5033378;28;20056;-83
2022/12/20 02:12:39;;;;;;;0.22;0.22;;;;;;;;;;5033875;28;20148;-82
2022/12/20 02:15:08;;;;;;;0.20;0.10;;;;;;;;;;5032384;28;20037;-84
2022/12/20 02:17:52;;;;;;;0.30;0.15;;;;;;;;;;5034554;28;20257;-82
2022/12/20 02:20:21;;;;;;;0.20;0.10;;;;;;;;;;5012185;28;21593;-84
2022/12/20 02:23:06;;;;;;;0.20;0.10;;;;;;;;;;5029516;28;20514;-81
2022/12/20 02:25:35;;;;;;;0.43;0.43;;;;;;;;;;5028359;28;20041;-84
2022/12/20 02:28:11;;;;;;;0.20;0.10;;;;;;;;;;5030822;28;20041;-82
2022/12/20 02:30:39;;;;;;;0.20;0.10;;;;;;;;;;5033841;28;20045;-83
2022/12/20 02:33:08;;;;;;;0.85;0.22;;;;;;;;;;5017986;28;20517;-83
2022/12/20 02:35:35;;;;;;;0.20;0.10;;;;;;;;;;5012342;28;20024;-79
2022/12/20 02:38:03;;;;;;;2.75;0.57;;;;;;;;;;5009326;28;20330;-80
2022/12/20 02:40:36;;;;;;;4.03;0.13;;;;;;;;;;5028615;28;20452;-82
2022/12/20 02:45:13;;;;;;;0.20;0.10;;;;;;;;;;5031662;28;20037;-80
2022/12/20 02:45:49;;;;;;;0.20;0.10;;;;;;;;;;5031879;28;20049;-81
2022/12/20 02:48:16;;;;;;;0.20;0.20;;;;;;;;;;5029537;28;20033;-82
2022/12/20 02:50:46;;;;;;;0.20;0.10;;;;;;;;;;5030284;28;20036;-82
2022/12/20 02:53:12;;;;;;;0.20;0.10;;;;;;;;;;5031286;28;20260;-80
2022/12/20 02:55:48;;;;;;;0.20;0.10;;;;;;;;;;5019566;28;20044;-81
2022/12/20 02:58:23;;;;;;;0.20;0.10;;;;;;;;;;5031541;28;20047;-79
2022/12/20 03:00:51;;;;;;;0.20;0.10;;;;;;;;;;5036554;28;20030;-81
2022/12/20 03:03:23;;;;;;;0.20;0.10;;;;;;;;;;5012124;28;20575;-81
2022/12/20 03:05:50;;;;;;;0.20;0.17;;;;;;;;;;5025365;28;20064;-83
2022/12/20 03:08:16;;;;;;;0.28;0.25;;;;;;;;;;5030409;28;20406;-80
2022/12/20 03:10:42;;;;;;;0.20;0.10;;;;;;;;;;5016710;28;20508;-83
2022/12/20 03:13:09;;;;;;;0.20;0.20;;;;;;;;;;5032819;28;20048;-83
2022/12/20 03:15:35;;;;;;;0.20;0.10;;;;;;;;;;5032379;28;20045;-83
2022/12/20 03:18:01;;;;;;;0.20;0.10;;;;;;;;;;5030621;28;20526;-82
2022/12/20 03:20:27;;;;;;;0.20;0.10;;;;;;;;;;5024547;28;20037;-83
2022/12/20 03:22:53;;;;;;;0.25;0.10;;;;;;;;;;5013032;28;20046;-84
2022/12/20 03:25:20;;;;;;;0.20;0.10;;;;;;;;;;5027036;28;20473;-81
2022/12/20 03:27:46;;;;;;;0.20;0.15;;;;;;;;;;5027771;28;20033;-81
2022/12/20 03:30:12;;;;;;;0.32;0.32;;;;;;;;;;5033514;28;20040;-82
2022/12/20 03:32:38;;;;;;;0.20;0.10;;;;;;;;;;5027769;28;20397;-81
2022/12/20 03:35:04;;;;;;;0.20;0.10;;;;;;;;;;5022192;28;20041;-83
2022/12/20 03:37:30;;;;;;;0.20;0.10;;;;;;;;;;5026165;28;20044;-83
2022/12/20 03:39:56;;;;;;;0.20;0.05;;;;;;;;;;5029805;28;20037;-82
2022/12/20 03:42:22;;;;;;;0.20;0.10;;;;;;;;;;5027457;28;20049;-84
2022/12/20 03:44:48;;;;;;;0.20;0.10;;;;;;;;;;5014261;28;20116;-83
2022/12/20 03:47:14;;;;;;;0.20;0.10;;;;;;;;;;5013309;28;20480;-83
2022/12/20 03:49:40;;;;;;;0.20;0.10;;;;;;;;;;5033189;28;20606;-82
2022/12/20 03:52:06;;;;;;;0.20;0.10;;;;;;;;;;5015912;28;20040;-83
2022/12/20 03:54:32;;;;;;;0.20;0.10;;;;;;;;;;5013160;28;20045;-83
2022/12/20 03:56:58;;;;;;;0.20;0.10;;;;;;;;;;5029664;28;20072;-82
2022/12/20 03:59:24;;;;;;;0.25;0.20;;;;;;;;;;5033218;28;20545;-83
2022/12/20 04:01:50;;;;;;;0.30;0.30;;;;;;;;;;5029213;28;20033;-82
2022/12/20 04:04:16;;;;;;;0.20;0.10;;;;;;;;;;5027826;28;20037;-83
2022/12/20 04:06:43;;;;;;;0.20;0.10;;;;;;;;;;5022995;28;20035;-82
2022/12/20 04:09:08;;;;;;;0.52;0.52;;;;;;;;;;5031709;28;21106;-83
2022/12/20 04:11:34;;;;;;;0.50;0.50;;;;;;;;;;5012873;28;20519;-84
2022/12/20 04:14:00;;;;;;;0.20;0.10;;;;;;;;;;5014024;28;20068;-83
2022/12/20 04:16:28;;;;;;;0.20;0.10;;;;;;;;;;5030481;28;20410;-84
2022/12/20 04:18:54;;;;;;;0.20;0.10;;;;;;;;;;5014880;28;20072;-81
2022/12/20 04:21:24;;;;;;;0.22;0.22;;;;;;;;;;5030074;28;20050;-82
2022/12/20 04:23:50;;;;;;;0.20;0.10;;;;;;;;;;5025512;28;20529;-82
2022/12/20 04:26:17;;;;;;;0.20;0.20;;;;;;;;;;5027472;28;20044;-82
2022/12/20 04:28:43;;;;;;;0.20;0.10;;;;;;;;;;5026531;28;20047;-84
2022/12/20 04:31:09;;;;;;;0.20;0.17;;;;;;;;;;5027294;28;20075;-82
2022/12/20 04:33:35;;;;;;;0.28;0.15;;;;;;;;;;5032976;28;20041;-84
2022/12/20 04:36:02;;;;;;;0.20;0.10;;;;;;;;;;5028977;28;20042;-84
2022/12/20 04:38:28;;;;;;;0.20;0.10;;;;;;;;;;5016378;28;20048;-83
2022/12/20 04:40:54;;;;;;;0.20;0.10;;;;;;;;;;5030831;28;20038;-84
2022/12/20 04:43:21;;;;;;;0.25;0.15;;;;;;;;;;5012141;28;20053;-83
2022/12/20 04:45:48;;;;;;;0.20;0.10;;;;;;;;;;5033912;28;20037;-84
2022/12/20 04:48:14;;;;;;;0.20;0.10;;;;;;;;;;5031456;28;20069;-81
2022/12/20 04:50:40;;;;;;;0.20;0.10;;;;;;;;;;5030522;28;21177;-84
2022/12/20 04:55:51;;;;;;;0.63;0.20;;;;;;;;;;5031193;28;20053;-84
2022/12/20 04:58:17;;;;;;;0.40;0.40;;;;;;;;;;5009588;28;20611;-81
2022/12/20 05:00:43;;;;;;;0.20;0.10;;;;;;;;;;5035513;28;20519;-81
2022/12/20 05:03:09;;;;;;;0.20;0.15;;;;;;;;;;5024207;28;20041;-81
2022/12/20 05:05:35;;;;;;;0.20;0.10;;;;;;;;;;5030620;28;20472;-83
2022/12/20 05:08:01;;;;;;;0.20;0.10;;;;;;;;;;5034133;28;20064;-83
2022/12/20 05:10:27;;;;;;;0.20;0.10;;;;;;;;;;5031874;28;20154;-82
2022/12/20 05:12:53;;;;;;;0.20;0.10;;;;;;;;;;5032605;28;20389;-83
2022/12/20 05:15:19;;;;;;;1.05;0.85;;;;;;;;;;5032791;28;21408;-84
2022/12/20 05:17:45;;;;;;;0.20;0.10;;;;;;;;;;5027334;28;20048;-82
2022/12/20 05:20:11;;;;;;;0.20;0.10;;;;;;;;;;5033328;28;20875;-83
2022/12/20 05:28:07;;;;;;;0.20;0.10;;;;;;;;;;5024759;28;20042;-82
2022/12/20 05:33:02;;;;;;;0.20;0.10;;;;;;;;;;5028279;28;20042;-81
2022/12/20 05:35:28;;;;;;;0.20;0.10;;;;;;;;;;5031725;28;20042;-83
2022/12/20 05:37:54;;;;;;;0.20;0.10;;;;;;;;;;5006437;28;20034;-80
2022/12/20 05:40:21;;;;;;;1.65;0.55;;;;;;;;;;5015250;28;20041;-79
2022/12/20 05:42:47;;;;;;;0.20;0.10;;;;;;;;;;5024989;28;20147;-82
2022/12/20 05:45:13;;;;;;;0.20;0.10;;;;;;;;;;4992605;28;21808;-80
2022/12/20 05:47:39;;;;;;;0.20;0.10;;;;;;;;;;5034572;28;20046;-81
2022/12/20 05:50:06;;;;;;;0.50;0.50;;;;;;;;;;5008426;28;20128;-80
2022/12/20 05:52:32;;;;;;;0.20;0.10;;;;;;;;;;5019952;28;20064;-81
2022/12/20 05:54:58;;;;;;;0.20;0.10;;;;;;;;;;5023235;28;20057;-82
2022/12/20 05:57:24;;;;;;;0.20;0.10;;;;;;;;;;5030840;28;20045;-82
2022/12/20 05:59:50;;;;;;;0.20;0.10;;;;;;;;;;5018133;28;20519;-80
2022/12/20 06:02:16;;;;;;;0.20;0.10;;;;;;;;;;5017656;28;20920;-80
2022/12/20 06:04:42;;;;;;;0.20;0.10;;;;;;;;;;4997865;28;20128;-82
2022/12/20 06:07:08;;;;;;;0.20;0.10;;;;;;;;;;4995488;28;20037;-80
2022/12/20 06:09:34;;;;;;;0.20;0.10;;;;;;;;;;5018915;28;20507;-81
2022/12/20 06:12:00;;;;;;;0.20;0.10;;;;;;;;;;4995130;28;20045;-82
2022/12/20 06:14:26;;;;;;;0.50;0.50;;;;;;;;;;5013242;28;20044;-80
2022/12/20 06:16:52;;;;;;;0.30;0.30;;;;;;;;;;5013754;28;20048;-81
2022/12/20 06:19:19;;;;;;;0.20;0.10;;;;;;;;;;5001242;28;20118;-81
2022/12/20 06:21:45;;;;;;;0.20;0.10;;;;;;;;;;4998873;28;20040;-81
2022/12/20 06:24:11;;;;;;;0.20;0.10;;;;;;;;;;5005366;28;20570;-79
2022/12/20 06:26:37;;;;;;;0.20;0.20;;;;;;;;;;5005172;28;20037;-80
2022/12/20 06:29:06;;;;;;;0.20;0.10;;;;;;;;;;5024409;28;20048;-82
2022/12/20 06:31:32;;;;;;;0.20;0.10;;;;;;;;;;5004926;28;20144;-81
2022/12/20 06:33:58;;;;;;;0.20;0.20;;;;;;;;;;5019371;28;20045;-84
2022/12/20 06:36:25;;;;;;;0.85;0.57;;;;;;;;;;5005869;28;20037;-83
2022/12/20 06:38:51;;;;;;;0.20;0.10;;;;;;;;;;5006023;28;20555;-84
2022/12/20 06:41:17;;;;;;;0.20;0.10;;;;;;;;;;5005035;28;20037;-81
2022/12/20 06:43:43;;;;;;;0.55;0.30;;;;;;;;;;5011457;28;21627;-83
2022/12/20 06:46:09;;;;;;;0.40;0.22;;;;;;;;;;5035486;28;20055;-80
2022/12/20 06:48:35;;;;;;;0.20;0.10;;;;;;;;;;5038469;28;20036;-81
2022/12/20 06:51:02;;;;;;;0.80;0.80;;;;;;;;;;5004852;28;20044;-82
2022/12/20 06:53:28;;;;;;;0.20;0.10;;;;;;;;;;5005702;28;20041;-81
2022/12/20 06:55:54;;;;;;;0.20;0.10;;;;;;;;;;5037375;28;20045;-82
2022/12/20 06:58:20;;;;;;;0.20;0.20;;;;;;;;;;5019258;28;20095;-81
2022/12/20 07:00:46;;;;;;;0.20;0.10;;;;;;;;;;5000124;28;20041;-81
2022/12/20 07:03:13;;;;;;;0.20;0.10;;;;;;;;;;5031902;28;20032;-81
2022/12/20 07:05:39;;;;;;;0.20;0.10;;;;;;;;;;4997842;28;20041;-80
2022/12/20 07:08:05;;;;;;;0.20;0.10;;;;;;;;;;5018575;28;20033;-81
2022/12/20 07:10:33;;;;;;;0.20;0.15;;;;;;;;;;4995571;28;20289;-81
2022/12/20 07:12:59;;;;;;;0.20;0.10;;;;;;;;;;5011839;28;20040;-80
2022/12/20 07:15:25;;;;;;;0.20;0.10;;;;;;;;;;5013462;28;20079;-81
2022/12/20 07:17:52;;;;;;;0.20;0.15;;;;;;;;;;5015884;28;20412;-81
2022/12/20 07:20:18;;;;;;;0.20;0.10;;;;;;;;;;5016252;28;20527;-81
2022/12/20 07:22:46;;;;;;;0.20;0.10;;;;;;;;;;5004600;28;20033;-81
2022/12/20 07:25:12;;;;;;;0.20;0.10;;;;;;;;;;5005821;28;20312;-81
2022/12/20 07:27:38;;;;;;;0.20;0.10;;;;;;;;;;4998909;28;20115;-80
2022/12/20 07:30:05;;;;;;;0.20;0.15;;;;;;;;;;5003949;28;20078;-83
2022/12/20 07:32:31;;;;;;;0.20;0.10;;;;;;;;;;5012991;28;20449;-80
2022/12/20 07:34:57;;;;;;;0.20;0.10;;;;;;;;;;5012861;28;20580;-81
2022/12/20 07:37:23;;;;;;;0.20;0.10;;;;;;;;;;5010410;28;20037;-82
2022/12/20 07:39:49;;;;;;;0.20;0.10;;;;;;;;;;5016152;28;20447;-81
2022/12/20 07:42:15;;;;;;;0.20;0.10;;;;;;;;;;5013200;28;20314;-81
2022/12/20 07:44:41;;;;;;;0.20;0.10;;;;;;;;;;5000205;28;20064;-81
2022/12/20 07:47:08;;;;;;;0.20;0.15;;;;;;;;;;5032088;28;20414;-83
2022/12/20 07:49:34;;;;;;;0.20;0.10;;;;;;;;;;5003929;28;20045;-81
2022/12/20 07:52:03;;;;;;;0.20;0.10;;;;;;;;;;5022017;28;20399;-81
2022/12/20 07:54:37;;;;;;;0.20;0.10;;;;;;;;;;5010019;28;20502;-81
2022/12/20 07:57:07;;;;;;;0.20;0.20;;;;;;;;;;5015417;28;20047;-80
2022/12/20 07:59:40;;;;;;;0.20;0.10;;;;;;;;;;5017211;28;20045;-82
2022/12/20 08:02:07;;;;;;;0.20;0.10;;;;;;;;;;5023934;28;20033;-82
2022/12/20 08:04:33;;;;;;;0.20;0.10;;;;;;;;;;4999679;28;20033;-79
2022/12/20 08:07:00;;;;;;;0.20;0.10;;;;;;;;;;5033719;28;20514;-82
2022/12/20 08:09:29;;;;;;;0.20;0.10;;;;;;;;;;5014669;28;20155;-79
2022/12/20 08:11:55;;;;;;;0.20;0.15;;;;;;;;;;5032790;28;20128;-81
2022/12/20 08:14:21;;;;;;;0.20;0.10;;;;;;;;;;5032869;28;20037;-81
2022/12/20 08:16:47;;;;;;;0.20;0.20;;;;;;;;;;5012441;28;20119;-81
2022/12/20 08:19:13;;;;;;;0.20;0.10;;;;;;;;;;4999897;28;20041;-81
2022/12/20 08:21:39;;;;;;;0.20;0.10;;;;;;;;;;5002292;28;20033;-81
2022/12/20 08:24:07;;;;;;;0.20;0.10;;;;;;;;;;5020912;28;20040;-81
2022/12/20 08:26:37;;;;;;;0.45;0.30;;;;;;;;;;5000443;28;20038;-82
2022/12/20 08:29:03;;;;;;;1.95;0.30;;;;;;;;;;5005316;28;20128;-83
2022/12/20 08:31:29;;;;;;;0.20;0.10;;;;;;;;;;5003198;28;20147;-84
2022/12/20 08:33:55;;;;;;;0.20;0.10;;;;;;;;;;5004857;28;20064;-81
2022/12/20 08:36:21;;;;;;;0.20;0.20;;;;;;;;;;5018762;28;20055;-82
2022/12/20 08:38:47;;;;;;;0.20;0.10;;;;;;;;;;5002708;28;20045;-82
2022/12/20 08:41:14;;;;;;;0.20;0.10;;;;;;;;;;5017051;28;20067;-81
2022/12/20 08:43:43;;;;;;;0.20;0.10;;;;;;;;;;4997024;28;20504;-83
2022/12/20 08:46:11;;;;;;;0.20;0.10;;;;;;;;;;5008879;28;20459;-82
2022/12/20 08:48:37;;;;;;;0.20;0.10;;;;;;;;;;5020086;28;20041;-80
2022/12/20 08:51:07;;;;;;;0.20;0.10;;;;;;;;;;5035300;28;20056;-81
2022/12/20 08:53:34;;;;;;;0.20;0.08;;;;;;;;;;5001982;28;20044;-83
2022/12/20 08:56:04;;;;;;;0.20;0.10;;;;;;;;;;5005687;28;20056;-81
2022/12/20 08:58:30;;;;;;;2.17;1.05;;;;;;;;;;5017346;28;20048;-81
2022/12/20 09:00:59;;;;;;;0.20;0.00;;;;;;;;;;4996372;28;20128;-80
2022/12/20 09:03:25;;;;;;;0.20;0.20;;;;;;;;;;5022798;28;20064;-82
2022/12/20 09:05:51;;;;;;;0.20;0.10;;;;;;;;;;5022614;28;20110;-82
2022/12/20 09:08:17;;;;;;;0.20;0.10;;;;;;;;;;5023486;28;20044;-84
2022/12/20 09:10:43;;;;;;;0.20;0.20;;;;;;;;;;5016285;28;20041;-84
2022/12/20 09:13:10;;;;;;;0.20;0.10;;;;;;;;;;5016552;28;20042;-81
2022/12/20 09:15:36;;;;;;;0.20;0.10;;;;;;;;;;5003108;28;20249;-82
2022/12/20 09:18:04;;;;;;;0.55;0.32;;;;;;;;;;4996849;28;20061;-81
2022/12/20 09:20:31;;;;;;;0.40;0.40;;;;;;;;;;5013155;28;20052;-81
2022/12/20 09:22:58;;;;;;;0.20;0.10;;;;;;;;;;5015824;28;20068;-82
2022/12/20 09:25:24;;;;;;;0.20;0.10;;;;;;;;;;5035721;28;20049;-81
2022/12/20 09:27:50;;;;;;;0.20;0.10;;;;;;;;;;5000636;28;20404;-81
2022/12/20 09:30:16;;;;;;;0.20;0.17;;;;;;;;;;5019608;28;20033;-81
2022/12/20 09:32:42;;;;;;;0.20;0.10;;;;;;;;;;5025388;28;20621;-82
2022/12/20 09:35:09;;;;;;;0.30;0.28;;;;;;;;;;5010188;28;20128;-84
2022/12/20 09:37:35;;;;;;;0.20;0.10;;;;;;;;;;5025340;28;20041;-81
2022/12/20 09:40:01;;;;;;;0.25;0.17;;;;;;;;;;5022552;28;20037;-81
2022/12/20 09:42:28;;;;;;;1.13;0.68;;;;;;;;;;5015507;28;20036;-81
2022/12/20 09:45:02;;;;;;;0.20;0.10;;;;;;;;;;5027157;28;20152;-83
2022/12/20 09:47:29;;;;;;;0.20;0.20;;;;;;;;;;5020837;28;20530;-80
2022/12/20 09:49:56;;;;;;;0.20;0.10;;;;;;;;;;5021020;28;20080;-80
2022/12/20 09:52:22;;;;;;;1.10;1.00;;;;;;;;;;5019162;28;20521;-83
2022/12/20 09:54:54;;;;;;;0.20;0.10;;;;;;;;;;5017385;28;20037;-82
2022/12/20 09:57:23;;;;;;;0.20;0.10;;;;;;;;;;5021795;28;20041;-82
2022/12/20 09:59:49;;;;;;;0.30;0.25;;;;;;;;;;5021143;28;20056;-82
2022/12/20 10:02:19;;;;;;;0.20;0.20;;;;;;;;;;5018693;28;20041;-81
2022/12/20 10:04:45;;;;;;;0.25;0.20;;;;;;;;;;5001925;28;20037;-84
2022/12/20 10:07:24;;;;;;;0.20;0.10;;;;;;;;;;5021666;28;20103;-82
2022/12/20 10:09:56;;;;;;;0.30;0.20;;;;;;;;;;5023875;28;20148;-80
2022/12/20 10:12:40;;;;;;;0.30;0.20;;;;;;;;;;5006533;28;20058;-83
2022/12/20 10:15:14;;;;;;;0.20;0.10;;;;;;;;;;5020564;28;20048;-82
2022/12/20 10:17:43;;;;;;;0.20;0.05;;;;;;;;;;5012263;28;20491;-80
2022/12/20 10:20:13;;;;;;;0.20;0.20;;;;;;;;;;5014908;28;20041;-81
2022/12/20 10:22:46;;;;;;;0.20;0.10;;;;;;;;;;4998344;28;20112;-80
2022/12/20 10:25:19;;;;;;;0.20;0.10;;;;;;;;;;5021577;28;20220;-80
2022/12/20 10:27:47;;;;;;;0.20;0.10;;;;;;;;;;5003185;28;20041;-81
2022/12/20 10:30:20;;;;;;;0.20;0.10;;;;;;;;;;5016913;28;20107;-81
2022/12/20 10:32:47;;;;;;;0.20;0.10;;;;;;;;;;5018535;28;20037;-81
2022/12/20 10:35:37;;;;;;;0.20;0.00;;;;;;;;;;5010031;28;20048;-81
2022/12/20 10:38:06;;;;;;;0.20;0.10;;;;;;;;;;4994156;28;20137;-83
2022/12/20 10:40:39;;;;;;;0.20;0.10;;;;;;;;;;5021464;28;20041;-82
2022/12/20 10:43:06;;;;;;;0.28;0.10;;;;;;;;;;5028957;28;20041;-81
2022/12/20 10:45:37;;;;;;;0.20;0.10;;;;;;;;;;5023623;28;20568;-80
2022/12/20 10:48:04;;;;;;;0.20;0.20;;;;;;;;;;5013046;28;20052;-80
2022/12/20 10:50:31;;;;;;;0.50;0.28;;;;;;;;;;5017938;28;20037;-82
2022/12/20 10:53:20;;;;;;;0.20;0.10;;;;;;;;;;5003523;28;20041;-80
2022/12/20 10:55:47;;;;;;;0.20;0.10;;;;;;;;;;5028773;28;20111;-82
2022/12/20 10:58:15;;;;;;;0.20;0.10;;;;;;;;;;5037949;28;20038;-81
2022/12/20 11:00:41;;;;;;;0.20;0.10;;;;;;;;;;5007229;28;20041;-79
2022/12/20 11:03:28;;;;;;;0.20;0.10;;;;;;;;;;5025355;28;20064;-81
2022/12/20 11:06:03;;;;;;;0.20;0.10;;;;;;;;;;5011402;28;20021;-79
2022/12/20 11:08:32;;;;;;;0.20;0.10;;;;;;;;;;5008425;28;20262;-81
2022/12/20 11:11:13;;;;;;;0.20;0.10;;;;;;;;;;5004850;28;20081;-79
2022/12/20 11:13:40;;;;;;;0.20;0.10;;;;;;;;;;5022744;28;20501;-82
2022/12/20 11:16:21;;;;;;;0.20;0.10;;;;;;;;;;5004973;28;20068;-80
2022/12/20 11:18:47;;;;;;;0.20;0.10;;;;;;;;;;5021817;28;20063;-82
2022/12/20 11:21:18;;;;;;;0.20;0.10;;;;;;;;;;5021669;28;20079;-81
2022/12/20 11:23:47;;;;;;;0.20;0.10;;;;;;;;;;5007598;28;20037;-80
2022/12/20 11:26:34;;;;;;;0.47;0.35;;;;;;;;;;4995932;28;20041;-81
2022/12/20 11:29:16;;;;;;;0.20;0.10;;;;;;;;;;5034238;28;20384;-80
2022/12/20 11:31:42;;;;;;;0.20;0.10;;;;;;;;;;5031581;22;20818;-81
2022/12/20 11:34:19;;;;;;;0.20;0.10;;;;;;;;;;4971460;28;20034;-82
2022/12/20 11:36:57;;;;;;;0.20;0.20;;;;;;;;;;4978645;28;20039;-82
2022/12/20 11:39:42;;;;;;;0.20;0.10;;;;;;;;;;4960328;28;20046;-86
2022/12/20 11:42:08;;;;;;;0.20;0.10;;;;;;;;;;4968793;28;20039;-82
2022/12/20 11:44:43;;;;;;;0.22;0.22;;;;;;;;;;4962428;28;20070;-83
2022/12/20 11:47:27;;;;;;;0.40;0.38;;;;;;;;;;4958945;28;20511;-81
2022/12/20 11:50:12;;;;;;;0.20;0.10;;;;;;;;;;4958476;28;20528;-83
2022/12/20 11:52:59;;;;;;;0.20;0.10;;;;;;;;;;4959522;28;20100;-82
2022/12/20 11:55:35;;;;;;;0.43;0.43;;;;;;;;;;4943263;28;20062;-84
2022/12/20 11:58:07;;;;;;;0.30;0.10;;;;;;;;;;4943995;28;20078;-83
2022/12/20 12:00:34;;;;;;;0.30;0.20;;;;;;;;;;4961010;28;20408;-83
2022/12/20 12:03:03;;;;;;;0.20;0.10;;;;;;;;;;4951297;28;20058;-84
2022/12/20 12:05:33;;;;;;;0.43;0.43;;;;;;;;;;4940941;28;20043;-84
2022/12/20 12:08:03;;;;;;;0.20;0.10;;;;;;;;;;4939824;28;20039;-81
2022/12/20 12:10:31;;;;;;;0.20;0.10;;;;;;;;;;4957027;28;20089;-81
2022/12/20 12:13:07;;;;;;;0.47;0.45;;;;;;;;;;4945085;28;20043;-82
2022/12/20 12:15:52;;;;;;;0.20;0.10;;;;;;;;;;4945377;28;20554;-82
2022/12/20 12:18:21;;;;;;;0.25;0.20;;;;;;;;;;4959532;28;20126;-82
2022/12/20 12:21:02;;;;;;;0.20;0.10;;;;;;;;;;4964622;28;20100;-83
2022/12/20 12:23:39;;;;;;;0.20;0.10;;;;;;;;;;4944154;28;20409;-83
2022/12/20 12:26:10;;;;;;;0.28;0.20;;;;;;;;;;4961246;28;20460;-83
2022/12/20 12:28:36;;;;;;;0.20;0.10;;;;;;;;;;4954928;28;20042;-85
2022/12/20 12:31:09;;;;;;;0.20;0.10;;;;;;;;;;4941477;28;20472;-82
2022/12/20 12:33:39;;;;;;;0.20;0.20;;;;;;;;;;4936779;28;20035;-83
2022/12/20 12:36:24;;;;;;;0.20;0.10;;;;;;;;;;4958696;28;20115;-83
2022/12/20 12:38:53;;;;;;;0.20;0.10;;;;;;;;;;4959452;28;20068;-83
2022/12/20 12:41:22;;;;;;;0.20;0.10;;;;;;;;;;4969193;28;20035;-82
2022/12/20 12:43:48;;;;;;;0.20;0.10;;;;;;;;;;4956276;28;20031;-82
2022/12/20 12:46:22;;;;;;;0.20;0.10;;;;;;;;;;4959142;28;20042;-83
2022/12/20 12:48:57;;;;;;;0.20;0.10;;;;;;;;;;4957131;28;20451;-83
2022/12/20 12:51:27;;;;;;;0.20;0.10;;;;;;;;;;4941167;28;20047;-83
2022/12/20 12:53:54;;;;;;;0.20;0.10;;;;;;;;;;4957778;28;20106;-85
2022/12/20 12:56:26;;;;;;;0.85;0.43;;;;;;;;;;4932789;28;20447;-83
2022/12/20 12:59:10;;;;;;;0.20;0.10;;;;;;;;;;4956110;28;20039;-82
2022/12/20 13:01:43;;;;;;;0.20;0.10;;;;;;;;;;4954559;28;20061;-85
2022/12/20 13:04:21;;;;;;;0.30;0.30;;;;;;;;;;4956424;28;20170;-82
2022/12/20 13:06:47;;;;;;;0.20;0.10;;;;;;;;;;4956933;28;20070;-84
2022/12/20 13:09:16;;;;;;;0.20;0.10;;;;;;;;;;4958953;28;20596;-84
2022/12/20 13:11:42;;;;;;;0.20;0.10;;;;;;;;;;4960814;28;20035;-84
2022/12/20 13:14:11;;;;;;;0.55;0.55;;;;;;;;;;4959131;28;20038;-85
2022/12/20 13:16:40;;;;;;;0.38;0.30;;;;;;;;;;4964904;28;20039;-84
2022/12/20 13:19:35;;;;;;;0.20;0.10;;;;;;;;;;4962493;28;20047;-84
2022/12/20 13:22:17;;;;;;;0.20;0.10;;;;;;;;;;4951032;28;20107;-84
2022/12/20 13:24:47;;;;;;;0.20;0.10;;;;;;;;;;4961220;28;20031;-85
2022/12/20 13:27:34;;;;;;;0.32;0.32;;;;;;;;;;4961444;28;20031;-85
2022/12/20 13:30:01;;;;;;;0.43;0.40;;;;;;;;;;4944965;28;20430;-83
2022/12/20 13:32:46;;;;;;;0.20;0.10;;;;;;;;;;4941904;28;20038;-85
2022/12/20 13:35:24;;;;;;;0.20;0.10;;;;;;;;;;4954412;28;20042;-86
2022/12/20 13:37:53;;;;;;;0.50;0.40;;;;;;;;;;4944397;28;20043;-82
2022/12/20 13:40:31;;;;;;;0.20;0.10;;;;;;;;;;4944424;28;20041;-84
2022/12/20 13:42:58;;;;;;;0.30;0.20;;;;;;;;;;4939453;28;20121;-86
2022/12/20 13:45:25;;;;;;;0.30;0.10;;;;;;;;;;4945893;28;20112;-86
2022/12/20 13:47:56;;;;;;;0.20;0.10;;;;;;;;;;4937356;28;20513;-85
2022/12/20 13:50:22;;;;;;;0.20;0.20;;;;;;;;;;4959375;28;20413;-84
2022/12/20 13:52:48;;;;;;;0.20;0.00;;;;;;;;;;4958382;28;20043;-83
2022/12/20 13:55:24;;;;;;;0.20;0.10;;;;;;;;;;4960881;28;20100;-84
2022/12/20 13:57:50;;;;;;;0.20;0.10;;;;;;;;;;4949099;28;20412;-84
2022/12/20 14:00:26;;;;;;;0.30;0.10;;;;;;;;;;4944823;28;20096;-85
2022/12/20 14:02:52;;;;;;;0.20;0.10;;;;;;;;;;4959799;28;20039;-84
2022/12/20 14:05:27;;;;;;;0.20;0.10;;;;;;;;;;4953472;28;20046;-82
2022/12/20 14:07:59;;;;;;;0.25;0.13;;;;;;;;;;4956001;28;20046;-84
2022/12/20 14:10:43;;;;;;;0.20;0.10;;;;;;;;;;4961431;28;20050;-83
2022/12/20 14:13:22;;;;;;;0.20;0.10;;;;;;;;;;4956022;28;20081;-84
2022/12/20 14:15:48;;;;;;;0.20;0.10;;;;;;;;;;4942010;28;20043;-87
2022/12/20 14:18:22;;;;;;;0.20;0.10;;;;;;;;;;4956440;28;20550;-84
2022/12/20 14:20:55;;;;;;;0.55;0.20;;;;;;;;;;4954825;28;20039;-87
2022/12/20 14:23:26;;;;;;;0.20;0.10;;;;;;;;;;4940664;28;20042;-85
2022/12/20 14:25:53;;;;;;;0.20;0.20;;;;;;;;;;4958948;28;20485;-83
2022/12/20 14:28:20;;;;;;;0.20;0.10;;;;;;;;;;4939413;28;20043;-83
2022/12/20 14:30:46;;;;;;;0.20;0.10;;;;;;;;;;4955744;28;20446;-83
2022/12/20 14:33:20;;;;;;;0.20;0.20;;;;;;;;;;4943639;28;20046;-83
2022/12/20 14:35:47;;;;;;;0.40;0.30;;;;;;;;;;4935871;28;20100;-83
2022/12/20 14:38:19;;;;;;;0.20;0.10;;;;;;;;;;4959729;28;20069;-83
2022/12/20 14:40:45;;;;;;;0.20;0.10;;;;;;;;;;4943185;28;20451;-84
2022/12/20 14:43:15;;;;;;;0.20;0.10;;;;;;;;;;4938294;28;20158;-85
2022/12/20 14:45:41;;;;;;;0.20;0.20;;;;;;;;;;4959365;28;20812;-85
2022/12/20 14:48:29;;;;;;;0.20;0.10;;;;;;;;;;4943884;28;20192;-84
2022/12/20 14:50:55;;;;;;;0.20;0.20;;;;;;;;;;4943527;28;20125;-84
2022/12/20 14:53:29;;;;;;;0.35;0.25;;;;;;;;;;4959202;28;20575;-83
2022/12/20 14:55:55;;;;;;;6.38;0.55;;;;;;;;;;4943264;28;20090;-81
2022/12/20 14:58:32;;;;;;;0.20;0.10;;;;;;;;;;4944820;28;20039;-83
2022/12/20 15:00:59;;;;;;;0.77;0.57;;;;;;;;;;4942090;28;20420;-82
2022/12/20 15:03:26;;;;;;;0.55;0.55;;;;;;;;;;4960872;28;20121;-82
2022/12/20 15:05:56;;;;;;;0.20;0.10;;;;;;;;;;4961592;28;20622;-82